sensor_id;sensor_type;location;lat;lon;timestamp;temperature;humidity
7588;DHT22;3835;48.850;8.938;2022-12-07T00:01:23;2.90;99.90
7588;DHT22;3835;48.850;8.938;2022-12-07T00:03:53;2.80;99.90
7588;DHT22;3835;48.850;8.938;2022-12-07T00:06:20;2.80;99.90
7588;DHT22;3835;48.850;8.938;2022-12-07T00:08:47;2.80;99.90
7588;DHT22;3835;48.850;8.938;2022-12-07T00:11:18;2.80;99.90
7588;DHT22;3835;48.850;8.938;2022-12-07T00:13:47;2.80;99.90
7588;DHT22;3835;48.850;8.938;2022-12-07T00:16:18;2.80;99.90
7588;DHT22;3835;48.850;8.938;2022-12-07T00:18:46;2.80;99.90
7588;DHT22;3835;48.850;8.938;2022-12-07T00:21:14;2.90;99.90
7588;DHT22;3835;48.850;8.938;2022-12-07T00:23:43;2.80;99.90
7588;DHT22;3835;48.850;8.938;2022-12-07T00:26:12;2.80;99.90
7588;DHT22;3835;48.850;8.938;2022-12-07T00:28:40;2.80;99.90
7588;DHT22;3835;48.850;8.938;2022-12-07T00:31:10;2.80;99.90
7588;DHT22;3835;48.850;8.938;2022-12-07T00:33:37;2.80;99.90
7588;DHT22;3835;48.850;8.938;2022-12-07T00:36:07;2.80;99.90
7588;DHT22;3835;48.850;8.938;2022-12-07T00:38:36;2.90;99.90
7588;DHT22;3835;48.850;8.938;2022-12-07T00:41:04;2.90;99.90
7588;DHT22;3835;48.850;8.938;2022-12-07T00:43:32;2.90;99.90
7588;DHT22;3835;48.850;8.938;2022-12-07T00:45:58;2.80;99.90
7588;DHT22;3835;48.850;8.938;2022-12-07T00:48:27;2.90;99.90
7588;DHT22;3835;48.850;8.938;2022-12-07T00:50:53;3.00;99.90
7588;DHT22;3835;48.850;8.938;2022-12-07T00:53:20;2.90;99.90
7588;DHT22;3835;48.850;8.938;2022-12-07T00:55:47;2.90;99.90
7588;DHT22;3835;48.850;8.938;2022-12-07T00:58:14;2.80;99.90
7588;DHT22;3835;48.850;8.938;2022-12-07T01:00:42;2.80;99.90
7588;DHT22;3835;48.850;8.938;2022-12-07T01:03:11;2.90;99.90
7588;DHT22;3835;48.850;8.938;2022-12-07T01:05:40;2.80;99.90
7588;DHT22;3835;48.850;8.938;2022-12-07T01:08:07;2.80;99.90
7588;DHT22;3835;48.850;8.938;2022-12-07T01:10:34;2.80;99.90
7588;DHT22;3835;48.850;8.938;2022-12-07T01:13:01;2.80;99.90
7588;DHT22;3835;48.850;8.938;2022-12-07T01:15:28;2.80;99.90
7588;DHT22;3835;48.850;8.938;2022-12-07T01:17:54;2.90;99.90
7588;DHT22;3835;48.850;8.938;2022-12-07T01:20:21;2.80;99.90
7588;DHT22;3835;48.850;8.938;2022-12-07T01:22:50;2.80;99.90
7588;DHT22;3835;48.850;8.938;2022-12-07T01:25:17;2.80;99.90
7588;DHT22;3835;48.850;8.938;2022-12-07T01:27:43;2.70;99.90
7588;DHT22;3835;48.850;8.938;2022-12-07T01:30:13;2.70;99.90
7588;DHT22;3835;48.850;8.938;2022-12-07T01:32:40;2.70;99.90
7588;DHT22;3835;48.850;8.938;2022-12-07T01:35:07;2.60;99.90
7588;DHT22;3835;48.850;8.938;2022-12-07T01:37:35;2.60;99.90
7588;DHT22;3835;48.850;8.938;2022-12-07T01:40:06;2.70;99.90
7588;DHT22;3835;48.850;8.938;2022-12-07T01:42:33;2.60;99.90
7588;DHT22;3835;48.850;8.938;2022-12-07T01:45:37;2.60;99.90
7588;DHT22;3835;48.850;8.938;2022-12-07T01:48:05;2.60;99.90
7588;DHT22;3835;48.850;8.938;2022-12-07T01:50:34;2.60;99.90
7588;DHT22;3835;48.850;8.938;2022-12-07T01:53:03;2.60;99.90
7588;DHT22;3835;48.850;8.938;2022-12-07T01:55:34;2.60;99.90
7588;DHT22;3835;48.850;8.938;2022-12-07T01:58:03;2.60;99.90
7588;DHT22;3835;48.850;8.938;2022-12-07T02:00:30;2.60;99.90
7588;DHT22;3835;48.850;8.938;2022-12-07T02:03:07;2.60;99.90
7588;DHT22;3835;48.850;8.938;2022-12-07T02:05:35;2.60;99.90
7588;DHT22;3835;48.850;8.938;2022-12-07T02:08:03;2.60;99.90
7588;DHT22;3835;48.850;8.938;2022-12-07T02:10:31;2.50;99.90
7588;DHT22;3835;48.850;8.938;2022-12-07T02:13:02;2.60;99.90
7588;DHT22;3835;48.850;8.938;2022-12-07T02:15:38;2.60;99.90
7588;DHT22;3835;48.850;8.938;2022-12-07T02:18:13;2.60;99.90
7588;DHT22;3835;48.850;8.938;2022-12-07T02:20:49;2.60;99.90
7588;DHT22;3835;48.850;8.938;2022-12-07T02:23:39;2.50;99.90
7588;DHT22;3835;48.850;8.938;2022-12-07T02:26:37;2.50;99.90
7588;DHT22;3835;48.850;8.938;2022-12-07T02:29:18;2.50;99.90
7588;DHT22;3835;48.850;8.938;2022-12-07T02:31:55;2.50;99.90
7588;DHT22;3835;48.850;8.938;2022-12-07T02:34:29;2.50;99.90
7588;DHT22;3835;48.850;8.938;2022-12-07T02:37:00;2.50;99.90
7588;DHT22;3835;48.850;8.938;2022-12-07T02:39:33;2.50;99.90
7588;DHT22;3835;48.850;8.938;2022-12-07T02:42:09;2.50;99.90
7588;DHT22;3835;48.850;8.938;2022-12-07T02:44:40;2.40;99.90
7588;DHT22;3835;48.850;8.938;2022-12-07T02:47:10;2.40;99.90
7588;DHT22;3835;48.850;8.938;2022-12-07T02:49:39;2.40;99.90
7588;DHT22;3835;48.850;8.938;2022-12-07T02:52:06;2.40;99.90
7588;DHT22;3835;48.850;8.938;2022-12-07T02:54:33;2.50;99.90
7588;DHT22;3835;48.850;8.938;2022-12-07T02:57:04;2.50;99.90
7588;DHT22;3835;48.850;8.938;2022-12-07T02:59:43;2.40;99.90
7588;DHT22;3835;48.850;8.938;2022-12-07T03:02:18;2.40;99.90
7588;DHT22;3835;48.850;8.938;2022-12-07T03:04:55;2.30;99.90
7588;DHT22;3835;48.850;8.938;2022-12-07T03:07:32;2.30;99.90
7588;DHT22;3835;48.850;8.938;2022-12-07T03:10:03;2.20;99.90
7588;DHT22;3835;48.850;8.938;2022-12-07T03:12:40;2.30;99.90
7588;DHT22;3835;48.850;8.938;2022-12-07T03:15:14;2.30;99.90
7588;DHT22;3835;48.850;8.938;2022-12-07T03:17:43;2.30;99.90
7588;DHT22;3835;48.850;8.938;2022-12-07T03:20:17;2.30;99.90
7588;DHT22;3835;48.850;8.938;2022-12-07T03:22:46;2.30;99.90
7588;DHT22;3835;48.850;8.938;2022-12-07T03:25:15;2.30;99.90
7588;DHT22;3835;48.850;8.938;2022-12-07T03:27:48;2.30;99.90
7588;DHT22;3835;48.850;8.938;2022-12-07T03:30:20;2.30;99.90
7588;DHT22;3835;48.850;8.938;2022-12-07T03:32:50;2.30;99.90
7588;DHT22;3835;48.850;8.938;2022-12-07T03:35:23;2.30;99.90
7588;DHT22;3835;48.850;8.938;2022-12-07T03:37:56;2.20;99.90
7588;DHT22;3835;48.850;8.938;2022-12-07T03:40:27;2.20;99.90
7588;DHT22;3835;48.850;8.938;2022-12-07T03:42:57;2.20;99.90
7588;DHT22;3835;48.850;8.938;2022-12-07T03:45:32;2.10;99.90
7588;DHT22;3835;48.850;8.938;2022-12-07T03:48:06;2.10;99.90
7588;DHT22;3835;48.850;8.938;2022-12-07T03:50:38;2.10;99.90
7588;DHT22;3835;48.850;8.938;2022-12-07T03:53:11;2.10;99.90
7588;DHT22;3835;48.850;8.938;2022-12-07T03:55:42;2.10;99.90
7588;DHT22;3835;48.850;8.938;2022-12-07T03:58:11;2.10;99.90
7588;DHT22;3835;48.850;8.938;2022-12-07T04:00:42;2.20;99.90
7588;DHT22;3835;48.850;8.938;2022-12-07T04:03:09;2.20;99.90
7588;DHT22;3835;48.850;8.938;2022-12-07T04:05:37;2.20;99.90
7588;DHT22;3835;48.850;8.938;2022-12-07T04:08:04;2.20;99.90
7588;DHT22;3835;48.850;8.938;2022-12-07T04:10:31;2.20;99.90
7588;DHT22;3835;48.850;8.938;2022-12-07T04:12:58;2.20;99.90
7588;DHT22;3835;48.850;8.938;2022-12-07T04:15:25;2.20;99.90
7588;DHT22;3835;48.850;8.938;2022-12-07T04:17:53;2.10;99.90
7588;DHT22;3835;48.850;8.938;2022-12-07T04:20:20;2.10;99.90
7588;DHT22;3835;48.850;8.938;2022-12-07T04:22:47;2.10;99.90
7588;DHT22;3835;48.850;8.938;2022-12-07T04:25:14;2.00;99.90
7588;DHT22;3835;48.850;8.938;2022-12-07T04:27:41;1.90;99.90
7588;DHT22;3835;48.850;8.938;2022-12-07T04:30:08;1.90;99.90
7588;DHT22;3835;48.850;8.938;2022-12-07T04:32:35;1.80;99.90
7588;DHT22;3835;48.850;8.938;2022-12-07T04:35:04;1.80;99.90
7588;DHT22;3835;48.850;8.938;2022-12-07T04:37:31;1.80;99.90
7588;DHT22;3835;48.850;8.938;2022-12-07T04:39:57;1.80;99.90
7588;DHT22;3835;48.850;8.938;2022-12-07T04:42:24;1.70;99.90
7588;DHT22;3835;48.850;8.938;2022-12-07T04:44:51;1.80;99.90
7588;DHT22;3835;48.850;8.938;2022-12-07T04:47:18;1.70;99.90
7588;DHT22;3835;48.850;8.938;2022-12-07T04:49:44;1.80;99.90
7588;DHT22;3835;48.850;8.938;2022-12-07T04:52:13;1.80;99.90
7588;DHT22;3835;48.850;8.938;2022-12-07T04:54:39;1.80;99.90
7588;DHT22;3835;48.850;8.938;2022-12-07T04:57:06;1.80;99.90
7588;DHT22;3835;48.850;8.938;2022-12-07T04:59:33;1.70;99.90
7588;DHT22;3835;48.850;8.938;2022-12-07T05:02:00;1.60;99.90
7588;DHT22;3835;48.850;8.938;2022-12-07T05:04:26;1.40;99.90
7588;DHT22;3835;48.850;8.938;2022-12-07T05:06:53;1.30;99.90
7588;DHT22;3835;48.850;8.938;2022-12-07T05:09:21;1.30;99.90
7588;DHT22;3835;48.850;8.938;2022-12-07T05:11:48;1.30;99.90
7588;DHT22;3835;48.850;8.938;2022-12-07T05:14:17;1.30;99.90
7588;DHT22;3835;48.850;8.938;2022-12-07T05:16:45;1.30;99.90
7588;DHT22;3835;48.850;8.938;2022-12-07T05:19:13;1.30;99.90
7588;DHT22;3835;48.850;8.938;2022-12-07T05:21:39;1.30;99.90
7588;DHT22;3835;48.850;8.938;2022-12-07T05:24:08;1.30;99.90
7588;DHT22;3835;48.850;8.938;2022-12-07T05:26:37;1.30;99.90
7588;DHT22;3835;48.850;8.938;2022-12-07T05:29:04;1.30;99.90
7588;DHT22;3835;48.850;8.938;2022-12-07T05:31:31;1.30;99.90
7588;DHT22;3835;48.850;8.938;2022-12-07T05:33:58;1.30;99.90
7588;DHT22;3835;48.850;8.938;2022-12-07T05:36:25;1.30;99.90
7588;DHT22;3835;48.850;8.938;2022-12-07T05:38:54;1.40;99.90
7588;DHT22;3835;48.850;8.938;2022-12-07T05:41:20;1.30;99.90
7588;DHT22;3835;48.850;8.938;2022-12-07T05:44:06;1.40;99.90
7588;DHT22;3835;48.850;8.938;2022-12-07T05:46:33;1.40;99.90
7588;DHT22;3835;48.850;8.938;2022-12-07T05:49:00;1.30;99.90
7588;DHT22;3835;48.850;8.938;2022-12-07T05:51:27;1.30;99.90
7588;DHT22;3835;48.850;8.938;2022-12-07T05:53:54;1.30;99.90
7588;DHT22;3835;48.850;8.938;2022-12-07T05:56:21;1.30;99.90
7588;DHT22;3835;48.850;8.938;2022-12-07T05:58:48;1.30;99.90
7588;DHT22;3835;48.850;8.938;2022-12-07T06:01:34;1.30;99.90
7588;DHT22;3835;48.850;8.938;2022-12-07T06:04:00;1.40;99.90
7588;DHT22;3835;48.850;8.938;2022-12-07T06:06:27;1.40;99.90
7588;DHT22;3835;48.850;8.938;2022-12-07T06:08:54;1.40;99.90
7588;DHT22;3835;48.850;8.938;2022-12-07T06:11:20;1.50;99.90
7588;DHT22;3835;48.850;8.938;2022-12-07T06:14:05;1.50;99.90
7588;DHT22;3835;48.850;8.938;2022-12-07T06:16:31;1.60;99.90
7588;DHT22;3835;48.850;8.938;2022-12-07T06:19:00;1.60;99.90
7588;DHT22;3835;48.850;8.938;2022-12-07T06:21:26;1.70;99.90
7588;DHT22;3835;48.850;8.938;2022-12-07T06:23:53;1.70;99.90
7588;DHT22;3835;48.850;8.938;2022-12-07T06:26:20;1.70;99.90
7588;DHT22;3835;48.850;8.938;2022-12-07T06:28:47;1.70;99.90
7588;DHT22;3835;48.850;8.938;2022-12-07T06:31:14;1.80;99.90
7588;DHT22;3835;48.850;8.938;2022-12-07T06:33:41;1.80;99.90
7588;DHT22;3835;48.850;8.938;2022-12-07T06:36:10;1.80;99.90
7588;DHT22;3835;48.850;8.938;2022-12-07T06:38:37;1.70;99.90
7588;DHT22;3835;48.850;8.938;2022-12-07T06:41:04;1.70;99.90
7588;DHT22;3835;48.850;8.938;2022-12-07T06:43:31;1.80;99.90
7588;DHT22;3835;48.850;8.938;2022-12-07T06:45:58;1.80;99.90
7588;DHT22;3835;48.850;8.938;2022-12-07T06:48:25;1.80;99.90
7588;DHT22;3835;48.850;8.938;2022-12-07T06:50:52;1.90;99.90
7588;DHT22;3835;48.850;8.938;2022-12-07T06:53:20;1.80;99.90
7588;DHT22;3835;48.850;8.938;2022-12-07T06:55:47;1.80;99.90
7588;DHT22;3835;48.850;8.938;2022-12-07T06:58:14;1.80;99.90
7588;DHT22;3835;48.850;8.938;2022-12-07T07:00:40;1.80;99.90
7588;DHT22;3835;48.850;8.938;2022-12-07T07:03:07;1.80;99.90
7588;DHT22;3835;48.850;8.938;2022-12-07T07:05:34;1.80;99.90
7588;DHT22;3835;48.850;8.938;2022-12-07T07:08:01;1.80;99.90
7588;DHT22;3835;48.850;8.938;2022-12-07T07:10:29;1.80;99.90
7588;DHT22;3835;48.850;8.938;2022-12-07T07:12:56;1.70;99.90
7588;DHT22;3835;48.850;8.938;2022-12-07T07:15:23;1.70;99.90
7588;DHT22;3835;48.850;8.938;2022-12-07T07:17:49;1.70;99.90
7588;DHT22;3835;48.850;8.938;2022-12-07T07:20:16;1.70;99.90
7588;DHT22;3835;48.850;8.938;2022-12-07T07:22:43;1.70;99.90
7588;DHT22;3835;48.850;8.938;2022-12-07T07:25:10;1.80;99.90
7588;DHT22;3835;48.850;8.938;2022-12-07T07:27:38;1.80;99.90
7588;DHT22;3835;48.850;8.938;2022-12-07T07:30:06;1.70;99.90
7588;DHT22;3835;48.850;8.938;2022-12-07T07:32:33;1.70;99.90
7588;DHT22;3835;48.850;8.938;2022-12-07T07:34:59;1.70;99.90
7588;DHT22;3835;48.850;8.938;2022-12-07T07:37:26;1.80;99.90
7588;DHT22;3835;48.850;8.938;2022-12-07T07:39:54;1.90;99.90
7588;DHT22;3835;48.850;8.938;2022-12-07T07:42:20;1.90;99.90
7588;DHT22;3835;48.850;8.938;2022-12-07T07:44:48;2.00;99.90
7588;DHT22;3835;48.850;8.938;2022-12-07T07:47:15;2.00;99.90
7588;DHT22;3835;48.850;8.938;2022-12-07T07:49:42;2.10;99.90
7588;DHT22;3835;48.850;8.938;2022-12-07T07:52:09;2.10;99.90
7588;DHT22;3835;48.850;8.938;2022-12-07T07:54:36;2.10;99.90
7588;DHT22;3835;48.850;8.938;2022-12-07T07:57:03;2.10;99.90
7588;DHT22;3835;48.850;8.938;2022-12-07T07:59:30;2.20;99.90
7588;DHT22;3835;48.850;8.938;2022-12-07T08:01:58;2.20;99.90
7588;DHT22;3835;48.850;8.938;2022-12-07T08:04:25;2.30;99.90
7588;DHT22;3835;48.850;8.938;2022-12-07T08:06:52;2.40;99.90
7588;DHT22;3835;48.850;8.938;2022-12-07T08:09:18;2.40;99.90
7588;DHT22;3835;48.850;8.938;2022-12-07T08:11:45;2.50;99.90
7588;DHT22;3835;48.850;8.938;2022-12-07T08:14:12;2.50;99.90
7588;DHT22;3835;48.850;8.938;2022-12-07T08:16:39;2.60;99.90
7588;DHT22;3835;48.850;8.938;2022-12-07T08:19:07;2.70;99.90
7588;DHT22;3835;48.850;8.938;2022-12-07T08:21:34;2.80;99.90
7588;DHT22;3835;48.850;8.938;2022-12-07T08:24:00;2.90;99.90
7588;DHT22;3835;48.850;8.938;2022-12-07T08:26:27;2.90;99.90
7588;DHT22;3835;48.850;8.938;2022-12-07T08:28:54;3.00;99.90
7588;DHT22;3835;48.850;8.938;2022-12-07T08:31:21;3.10;99.90
7588;DHT22;3835;48.850;8.938;2022-12-07T08:33:48;3.20;99.90
7588;DHT22;3835;48.850;8.938;2022-12-07T08:36:17;3.20;99.90
7588;DHT22;3835;48.850;8.938;2022-12-07T08:38:44;3.20;99.90
7588;DHT22;3835;48.850;8.938;2022-12-07T08:41:11;3.30;99.90
7588;DHT22;3835;48.850;8.938;2022-12-07T08:43:37;3.30;99.90
7588;DHT22;3835;48.850;8.938;2022-12-07T08:46:08;3.30;99.90
7588;DHT22;3835;48.850;8.938;2022-12-07T08:48:39;3.30;99.90
7588;DHT22;3835;48.850;8.938;2022-12-07T08:51:07;3.30;99.90
7588;DHT22;3835;48.850;8.938;2022-12-07T08:53:37;3.40;99.90
7588;DHT22;3835;48.850;8.938;2022-12-07T08:56:06;3.50;99.90
7588;DHT22;3835;48.850;8.938;2022-12-07T08:58:35;3.70;99.90
7588;DHT22;3835;48.850;8.938;2022-12-07T09:01:03;3.70;99.90
7588;DHT22;3835;48.850;8.938;2022-12-07T09:03:30;3.80;99.90
7588;DHT22;3835;48.850;8.938;2022-12-07T09:05:57;3.90;99.90
7588;DHT22;3835;48.850;8.938;2022-12-07T09:08:28;3.90;99.90
7588;DHT22;3835;48.850;8.938;2022-12-07T09:10:57;4.00;99.90
7588;DHT22;3835;48.850;8.938;2022-12-07T09:13:24;4.10;99.90
7588;DHT22;3835;48.850;8.938;2022-12-07T09:15:51;4.10;99.90
7588;DHT22;3835;48.850;8.938;2022-12-07T09:18:18;4.10;99.90
7588;DHT22;3835;48.850;8.938;2022-12-07T09:20:44;4.10;99.90
7588;DHT22;3835;48.850;8.938;2022-12-07T09:23:11;4.00;99.90
7588;DHT22;3835;48.850;8.938;2022-12-07T09:25:41;3.90;99.90
7588;DHT22;3835;48.850;8.938;2022-12-07T09:28:09;4.00;99.90
7588;DHT22;3835;48.850;8.938;2022-12-07T09:30:36;3.90;99.90
7588;DHT22;3835;48.850;8.938;2022-12-07T09:33:03;3.80;99.90
7588;DHT22;3835;48.850;8.938;2022-12-07T09:35:30;3.80;99.90
7588;DHT22;3835;48.850;8.938;2022-12-07T09:37:56;3.70;99.90
7588;DHT22;3835;48.850;8.938;2022-12-07T09:40:23;3.90;99.90
7588;DHT22;3835;48.850;8.938;2022-12-07T09:42:52;4.00;99.90
7588;DHT22;3835;48.850;8.938;2022-12-07T09:45:24;4.10;99.90
7588;DHT22;3835;48.850;8.938;2022-12-07T09:47:51;4.20;99.90
7588;DHT22;3835;48.850;8.938;2022-12-07T09:50:21;4.50;99.90
7588;DHT22;3835;48.850;8.938;2022-12-07T09:52:50;4.30;99.90
7588;DHT22;3835;48.850;8.938;2022-12-07T09:55:21;4.30;99.90
7588;DHT22;3835;48.850;8.938;2022-12-07T09:57:49;4.40;99.90
7588;DHT22;3835;48.850;8.938;2022-12-07T10:00:19;4.10;99.90
7588;DHT22;3835;48.850;8.938;2022-12-07T10:02:51;4.20;99.90
7588;DHT22;3835;48.850;8.938;2022-12-07T10:05:22;4.10;99.90
7588;DHT22;3835;48.850;8.938;2022-12-07T10:07:51;3.90;99.90
7588;DHT22;3835;48.850;8.938;2022-12-07T10:10:22;3.80;99.90
7588;DHT22;3835;48.850;8.938;2022-12-07T10:12:54;3.70;99.90
7588;DHT22;3835;48.850;8.938;2022-12-07T10:15:22;3.80;99.90
7588;DHT22;3835;48.850;8.938;2022-12-07T10:17:52;3.60;99.90
7588;DHT22;3835;48.850;8.938;2022-12-07T10:20:22;3.70;99.90
7588;DHT22;3835;48.850;8.938;2022-12-07T10:23:01;3.80;99.90
7588;DHT22;3835;48.850;8.938;2022-12-07T10:25:31;3.80;99.90
7588;DHT22;3835;48.850;8.938;2022-12-07T10:28:02;3.80;99.90
7588;DHT22;3835;48.850;8.938;2022-12-07T10:30:30;4.00;99.90
7588;DHT22;3835;48.850;8.938;2022-12-07T10:32:59;4.10;99.90
7588;DHT22;3835;48.850;8.938;2022-12-07T10:35:28;4.50;99.90
7588;DHT22;3835;48.850;8.938;2022-12-07T10:37:59;4.70;99.90
7588;DHT22;3835;48.850;8.938;2022-12-07T10:40:30;4.40;99.90
7588;DHT22;3835;48.850;8.938;2022-12-07T10:43:18;4.40;99.90
7588;DHT22;3835;48.850;8.938;2022-12-07T10:46:14;4.60;99.90
7588;DHT22;3835;48.850;8.938;2022-12-07T10:48:57;4.80;99.90
7588;DHT22;3835;48.850;8.938;2022-12-07T10:51:30;4.90;99.90
7588;DHT22;3835;48.850;8.938;2022-12-07T10:54:08;4.90;99.90
7588;DHT22;3835;48.850;8.938;2022-12-07T10:57:07;5.30;99.90
7588;DHT22;3835;48.850;8.938;2022-12-07T10:59:53;5.80;99.90
7588;DHT22;3835;48.850;8.938;2022-12-07T11:02:35;5.70;99.90
7588;DHT22;3835;48.850;8.938;2022-12-07T11:05:16;5.20;99.90
7588;DHT22;3835;48.850;8.938;2022-12-07T11:07:51;4.60;99.90
7588;DHT22;3835;48.850;8.938;2022-12-07T11:10:23;4.20;99.90
7588;DHT22;3835;48.850;8.938;2022-12-07T11:13:16;4.10;99.90
7588;DHT22;3835;48.850;8.938;2022-12-07T11:15:57;4.10;99.90
7588;DHT22;3835;48.850;8.938;2022-12-07T11:18:29;4.20;99.90
7588;DHT22;3835;48.850;8.938;2022-12-07T11:21:06;3.90;99.90
7588;DHT22;3835;48.850;8.938;2022-12-07T11:23:44;3.80;99.90
7588;DHT22;3835;48.850;8.938;2022-12-07T11:26:21;4.00;99.90
7588;DHT22;3835;48.850;8.938;2022-12-07T11:29:06;4.20;99.90
7588;DHT22;3835;48.850;8.938;2022-12-07T11:31:41;4.20;99.90
7588;DHT22;3835;48.850;8.938;2022-12-07T11:34:23;4.10;99.90
7588;DHT22;3835;48.850;8.938;2022-12-07T11:36:57;4.00;99.90
7588;DHT22;3835;48.850;8.938;2022-12-07T11:39:30;4.00;99.90
7588;DHT22;3835;48.850;8.938;2022-12-07T11:42:04;4.10;99.90
7588;DHT22;3835;48.850;8.938;2022-12-07T11:44:38;4.00;99.90
7588;DHT22;3835;48.850;8.938;2022-12-07T11:47:08;3.80;99.90
7588;DHT22;3835;48.850;8.938;2022-12-07T11:49:42;3.50;99.90
7588;DHT22;3835;48.850;8.938;2022-12-07T11:52:20;3.40;99.90
7588;DHT22;3835;48.850;8.938;2022-12-07T11:54:51;3.50;99.90
7588;DHT22;3835;48.850;8.938;2022-12-07T11:57:25;3.50;99.90
7588;DHT22;3835;48.850;8.938;2022-12-07T12:00:00;3.50;99.90
7588;DHT22;3835;48.850;8.938;2022-12-07T12:02:36;3.70;99.90
7588;DHT22;3835;48.850;8.938;2022-12-07T12:05:16;3.90;99.90
7588;DHT22;3835;48.850;8.938;2022-12-07T12:07:53;3.90;99.90
7588;DHT22;3835;48.850;8.938;2022-12-07T12:10:30;4.20;99.90
7588;DHT22;3835;48.850;8.938;2022-12-07T12:16:25;4.30;99.90
7588;DHT22;3835;48.850;8.938;2022-12-07T12:19:16;4.30;99.90
7588;DHT22;3835;48.850;8.938;2022-12-07T12:21:48;4.60;99.90
7588;DHT22;3835;48.850;8.938;2022-12-07T12:24:24;4.60;99.90
7588;DHT22;3835;48.850;8.938;2022-12-07T12:26:57;4.40;99.90
7588;DHT22;3835;48.850;8.938;2022-12-07T12:29:33;4.50;99.90
7588;DHT22;3835;48.850;8.938;2022-12-07T12:32:10;4.40;99.90
7588;DHT22;3835;48.850;8.938;2022-12-07T12:34:41;4.60;99.90
7588;DHT22;3835;48.850;8.938;2022-12-07T12:37:42;4.50;99.90
7588;DHT22;3835;48.850;8.938;2022-12-07T12:40:40;4.90;99.90
7588;DHT22;3835;48.850;8.938;2022-12-07T12:43:41;5.00;99.90
7588;DHT22;3835;48.850;8.938;2022-12-07T12:49:42;4.60;99.90
7588;DHT22;3835;48.850;8.938;2022-12-07T12:55:17;4.80;99.90
7588;DHT22;3835;48.850;8.938;2022-12-07T12:57:48;4.70;99.90
7588;DHT22;3835;48.850;8.938;2022-12-07T13:00:35;4.60;99.90
7588;DHT22;3835;48.850;8.938;2022-12-07T13:03:01;4.60;99.90
7588;DHT22;3835;48.850;8.938;2022-12-07T13:05:29;4.50;99.90
7588;DHT22;3835;48.850;8.938;2022-12-07T13:07:59;4.40;99.90
7588;DHT22;3835;48.850;8.938;2022-12-07T13:10:38;4.20;99.90
7588;DHT22;3835;48.850;8.938;2022-12-07T13:13:31;4.00;99.90
7588;DHT22;3835;48.850;8.938;2022-12-07T13:19:53;3.60;99.90
7588;DHT22;3835;48.850;8.938;2022-12-07T13:22:40;3.60;99.90
7588;DHT22;3835;48.850;8.938;2022-12-07T13:25:12;3.60;99.90
7588;DHT22;3835;48.850;8.938;2022-12-07T13:27:41;3.70;99.90
7588;DHT22;3835;48.850;8.938;2022-12-07T13:30:16;3.80;99.90
7588;DHT22;3835;48.850;8.938;2022-12-07T13:32:43;3.80;99.90
7588;DHT22;3835;48.850;8.938;2022-12-07T13:35:32;3.90;99.90
7588;DHT22;3835;48.850;8.938;2022-12-07T13:38:01;4.10;99.90
7588;DHT22;3835;48.850;8.938;2022-12-07T13:40:28;4.10;99.90
7588;DHT22;3835;48.850;8.938;2022-12-07T13:42:58;4.10;99.90
7588;DHT22;3835;48.850;8.938;2022-12-07T13:45:29;4.10;99.90
7588;DHT22;3835;48.850;8.938;2022-12-07T13:48:15;4.10;99.90
7588;DHT22;3835;48.850;8.938;2022-12-07T13:50:51;3.90;99.90
7588;DHT22;3835;48.850;8.938;2022-12-07T13:53:18;3.90;99.90
7588;DHT22;3835;48.850;8.938;2022-12-07T13:55:46;4.00;99.90
7588;DHT22;3835;48.850;8.938;2022-12-07T13:58:13;4.10;99.90
7588;DHT22;3835;48.850;8.938;2022-12-07T14:00:42;4.00;99.90
7588;DHT22;3835;48.850;8.938;2022-12-07T14:03:27;4.00;99.90
7588;DHT22;3835;48.850;8.938;2022-12-07T14:06:06;4.10;99.90
7588;DHT22;3835;48.850;8.938;2022-12-07T14:08:34;3.90;99.90
7588;DHT22;3835;48.850;8.938;2022-12-07T14:11:01;3.80;99.90
7588;DHT22;3835;48.850;8.938;2022-12-07T14:13:31;3.90;99.90
7588;DHT22;3835;48.850;8.938;2022-12-07T14:16:01;4.00;99.90
7588;DHT22;3835;48.850;8.938;2022-12-07T14:18:30;4.00;99.90
7588;DHT22;3835;48.850;8.938;2022-12-07T14:21:04;3.90;99.90
7588;DHT22;3835;48.850;8.938;2022-12-07T14:23:31;3.70;99.90
7588;DHT22;3835;48.850;8.938;2022-12-07T14:26:06;3.60;99.90
7588;DHT22;3835;48.850;8.938;2022-12-07T14:28:35;3.60;99.90
7588;DHT22;3835;48.850;8.938;2022-12-07T14:31:10;3.50;99.90
7588;DHT22;3835;48.850;8.938;2022-12-07T14:33:38;3.50;99.90
7588;DHT22;3835;48.850;8.938;2022-12-07T14:36:05;3.60;99.90
7588;DHT22;3835;48.850;8.938;2022-12-07T14:38:32;3.60;99.90
7588;DHT22;3835;48.850;8.938;2022-12-07T14:40:59;3.50;99.90
7588;DHT22;3835;48.850;8.938;2022-12-07T14:43:46;3.30;99.90
7588;DHT22;3835;48.850;8.938;2022-12-07T14:46:14;3.30;99.90
7588;DHT22;3835;48.850;8.938;2022-12-07T14:48:40;3.30;99.90
7588;DHT22;3835;48.850;8.938;2022-12-07T14:51:10;3.30;99.90
7588;DHT22;3835;48.850;8.938;2022-12-07T14:53:41;3.30;99.90
7588;DHT22;3835;48.850;8.938;2022-12-07T14:56:09;3.30;99.90
7588;DHT22;3835;48.850;8.938;2022-12-07T14:58:36;3.20;99.90
7588;DHT22;3835;48.850;8.938;2022-12-07T15:01:03;3.10;99.90
7588;DHT22;3835;48.850;8.938;2022-12-07T15:03:31;2.90;99.90
7588;DHT22;3835;48.850;8.938;2022-12-07T15:06:00;2.90;99.90
7588;DHT22;3835;48.850;8.938;2022-12-07T15:08:26;2.80;99.90
7588;DHT22;3835;48.850;8.938;2022-12-07T15:10:53;2.70;99.90
7588;DHT22;3835;48.850;8.938;2022-12-07T15:13:20;2.60;99.90
7588;DHT22;3835;48.850;8.938;2022-12-07T15:16:07;2.60;99.90
7588;DHT22;3835;48.850;8.938;2022-12-07T15:18:35;2.70;99.90
7588;DHT22;3835;48.850;8.938;2022-12-07T15:21:02;2.70;99.90
7588;DHT22;3835;48.850;8.938;2022-12-07T15:23:29;2.70;99.90
7588;DHT22;3835;48.850;8.938;2022-12-07T15:25:56;2.70;99.90
7588;DHT22;3835;48.850;8.938;2022-12-07T15:28:23;2.80;99.90
7588;DHT22;3835;48.850;8.938;2022-12-07T15:30:50;2.70;99.90
7588;DHT22;3835;48.850;8.938;2022-12-07T15:33:17;2.70;99.90
7588;DHT22;3835;48.850;8.938;2022-12-07T15:35:45;2.70;99.90
7588;DHT22;3835;48.850;8.938;2022-12-07T15:38:12;2.70;99.90
7588;DHT22;3835;48.850;8.938;2022-12-07T15:40:39;2.70;99.90
7588;DHT22;3835;48.850;8.938;2022-12-07T15:43:08;2.70;99.90
7588;DHT22;3835;48.850;8.938;2022-12-07T15:45:55;2.60;99.90
7588;DHT22;3835;48.850;8.938;2022-12-07T15:48:21;2.60;99.90
7588;DHT22;3835;48.850;8.938;2022-12-07T15:50:49;2.60;99.90
7588;DHT22;3835;48.850;8.938;2022-12-07T15:53:16;2.60;99.90
7588;DHT22;3835;48.850;8.938;2022-12-07T15:55:43;2.60;99.90
7588;DHT22;3835;48.850;8.938;2022-12-07T15:58:09;2.60;99.90
7588;DHT22;3835;48.850;8.938;2022-12-07T16:00:36;2.50;99.90
7588;DHT22;3835;48.850;8.938;2022-12-07T16:03:03;2.60;99.90
7588;DHT22;3835;48.850;8.938;2022-12-07T16:05:30;2.60;99.90
7588;DHT22;3835;48.850;8.938;2022-12-07T16:07:58;2.60;99.90
7588;DHT22;3835;48.850;8.938;2022-12-07T16:10:25;2.50;99.90
7588;DHT22;3835;48.850;8.938;2022-12-07T16:12:51;2.50;99.90
7588;DHT22;3835;48.850;8.938;2022-12-07T16:15:18;2.60;99.90
7588;DHT22;3835;48.850;8.938;2022-12-07T16:17:45;2.60;99.90
7588;DHT22;3835;48.850;8.938;2022-12-07T16:20:12;2.50;99.90
7588;DHT22;3835;48.850;8.938;2022-12-07T16:22:39;2.60;99.90
7588;DHT22;3835;48.850;8.938;2022-12-07T16:25:08;2.60;99.90
7588;DHT22;3835;48.850;8.938;2022-12-07T16:27:35;2.70;99.90
7588;DHT22;3835;48.850;8.938;2022-12-07T16:30:02;2.60;99.90
7588;DHT22;3835;48.850;8.938;2022-12-07T16:32:29;2.60;99.90
7588;DHT22;3835;48.850;8.938;2022-12-07T16:34:56;2.70;99.90
7588;DHT22;3835;48.850;8.938;2022-12-07T16:37:22;2.70;99.90
7588;DHT22;3835;48.850;8.938;2022-12-07T16:39:49;2.80;99.90
7588;DHT22;3835;48.850;8.938;2022-12-07T16:42:17;2.70;99.90
7588;DHT22;3835;48.850;8.938;2022-12-07T16:44:44;2.70;99.90
7588;DHT22;3835;48.850;8.938;2022-12-07T16:47:11;2.80;99.90
7588;DHT22;3835;48.850;8.938;2022-12-07T16:49:37;2.80;99.90
7588;DHT22;3835;48.850;8.938;2022-12-07T16:52:04;2.70;99.90